Time;durP1;ratioP1;P1;durP2;ratioP2;P2;SDS_P1;SDS_P2;PMS_P1;PMS_P2;Temp;Humidity;BMP_temperature;BMP_pressure;BME280_temperature;BME280_humidity;BME280_pressure;Samples;Min_cycle;Max_cycle;Signal;HPM_P1;HPM_P2
2022/10/01 00:00:46;;;;;;;;;;;;;;;16.37;67.85;99825.56;1022586;28;650;-69
2022/10/01 00:01:38;;;;;;;;;;;;;;;16.25;68.38;99816.97;1021813;28;784;-70
2022/10/01 00:02:28;;;;;;;;;;;;;;;16.23;68.48;99822.50;1021506;29;674;-68
2022/10/01 00:03:18;;;;;;;;;;;;;;;16.26;68.15;99815.97;1021658;29;654;-69
2022/10/01 00:04:09;;;;;;;;;;;;;;;16.29;68.48;99810.25;1019916;29;694;-69
2022/10/01 00:05:00;;;;;;;;;;;;;;;16.30;68.43;99814.63;1021152;29;751;-68
2022/10/01 00:05:50;;;;;;;;;;;;;;;16.30;67.96;99815.44;1021654;29;658;-69
2022/10/01 00:06:40;;;;;;;;;;;;;;;16.28;68.13;99814.78;1021713;29;721;-68
2022/10/01 00:07:31;;;;;;;;;;;;;;;16.23;68.04;99806.38;1021661;29;668;-68
2022/10/01 00:08:21;;;;;;;;;;;;;;;16.14;68.47;99809.16;1021474;29;737;-68
2022/10/01 00:09:12;;;;;;;;;;;;;;;16.20;68.30;99814.75;1021528;29;655;-68
2022/10/01 00:10:02;;;;;;;;;;;;;;;16.23;68.45;99811.75;1021667;29;649;-68
2022/10/01 00:10:53;;;;;;;;;;;;;;;16.23;67.61;99802.84;1021076;29;687;-69
2022/10/01 00:11:43;;;;;;;;;;;;;;;16.20;68.74;99805.84;1021184;29;635;-68
2022/10/01 00:12:33;;;;;;;;;;;;;;;16.24;68.04;99799.97;1021583;29;631;-68
2022/10/01 00:13:24;;;;;;;;;;;;;;;16.04;67.87;99790.47;1021739;29;697;-69
2022/10/01 00:14:14;;;;;;;;;;;;;;;16.17;69.03;99793.56;1019754;29;680;-69
2022/10/01 00:15:08;;;;;;;;;;;;;;;16.21;68.29;99792.25;1021009;29;1293;-69
2022/10/01 00:15:59;;;;;;;;;;;;;;;16.21;68.55;99794.94;1021095;29;1902;-69
2022/10/01 00:16:49;;;;;;;;;;;;;;;16.24;68.25;99791.91;1021174;29;547;-69
2022/10/01 00:17:40;;;;;;;;;;;;;;;16.21;68.47;99789.53;1020583;29;619;-69
2022/10/01 00:18:30;;;;;;;;;;;;;;;16.18;68.06;99792.56;1021172;29;635;-68
2022/10/01 00:19:21;;;;;;;;;;;;;;;16.18;68.60;99781.81;1020635;29;685;-68
2022/10/01 00:20:12;;;;;;;;;;;;;;;16.14;69.08;99783.13;1021083;29;695;-67
2022/10/01 00:21:02;;;;;;;;;;;;;;;16.22;68.28;99783.16;1021097;29;659;-68
2022/10/01 00:21:52;;;;;;;;;;;;;;;16.25;68.60;99777.47;1021075;29;623;-69
2022/10/01 00:22:43;;;;;;;;;;;;;;;16.21;68.28;99777.94;1020411;29;571;-68
2022/10/01 00:23:33;;;;;;;;;;;;;;;16.11;68.46;99780.78;1020376;29;702;-68
2022/10/01 00:24:24;;;;;;;;;;;;;;;16.16;68.76;99774.91;1021086;29;642;-69
2022/10/01 00:25:14;;;;;;;;;;;;;;;16.19;68.16;99774.59;1021131;29;651;-68
2022/10/01 00:26:05;;;;;;;;;;;;;;;16.20;68.88;99784.34;1019911;29;670;-68
2022/10/01 00:26:56;;;;;;;;;;;;;;;16.15;67.68;99775.91;1021013;29;690;-68
2022/10/01 00:27:46;;;;;;;;;;;;;;;16.06;68.89;99766.13;1021012;29;600;-68
2022/10/01 00:28:37;;;;;;;;;;;;;;;16.08;68.60;99759.59;1020955;29;714;-68
2022/10/01 00:29:27;;;;;;;;;;;;;;;15.98;68.52;99748.13;1021566;29;752;-68
2022/10/01 00:30:18;;;;;;;;;;;;;;;16.11;68.40;99753.91;1021059;29;627;-68
2022/10/01 00:31:09;;;;;;;;;;;;;;;16.10;68.72;99741.47;1020929;29;650;-69
2022/10/01 00:31:59;;;;;;;;;;;;;;;16.08;68.84;99738.09;1021085;29;682;-69
2022/10/01 00:32:50;;;;;;;;;;;;;;;16.04;68.39;99728.66;1020953;29;761;-69
2022/10/01 00:33:40;;;;;;;;;;;;;;;16.13;68.71;99745.66;1021024;29;654;-69
2022/10/01 00:34:30;;;;;;;;;;;;;;;16.16;68.52;99732.72;1020903;29;641;-69
2022/10/01 00:35:21;;;;;;;;;;;;;;;16.21;68.75;99727.72;1020950;29;741;-69
2022/10/01 00:36:11;;;;;;;;;;;;;;;16.21;68.63;99713.44;1020481;29;1895;-69
2022/10/01 00:37:02;;;;;;;;;;;;;;;16.21;68.90;99706.22;1020802;29;1124;-68
2022/10/01 00:37:52;;;;;;;;;;;;;;;16.13;68.20;99703.50;1020889;29;615;-69
2022/10/01 00:38:45;;;;;;;;;;;;;;;16.09;68.85;99693.25;1020975;29;690;-68
2022/10/01 00:39:35;;;;;;;;;;;;;;;15.98;68.08;99699.75;1020994;29;639;-69
2022/10/01 00:40:26;;;;;;;;;;;;;;;15.94;69.33;99703.78;1020427;29;675;-69
2022/10/01 00:41:16;;;;;;;;;;;;;;;15.92;69.29;99712.00;1020978;29;608;-69
2022/10/01 00:42:06;;;;;;;;;;;;;;;15.95;68.74;99706.28;1020382;29;686;-68
2022/10/01 00:42:57;;;;;;;;;;;;;;;15.98;69.24;99707.81;1020420;29;698;-68
2022/10/01 00:43:47;;;;;;;;;;;;;;;16.03;68.77;99710.00;1020391;29;706;-68
2022/10/01 00:44:38;;;;;;;;;;;;;;;15.95;69.13;99716.19;1020894;29;1188;-68
2022/10/01 00:45:28;;;;;;;;;;;;;;;15.98;68.90;99703.28;1020849;29;1369;-68
2022/10/01 00:46:19;;;;;;;;;;;;;;;16.02;69.11;99706.47;1021498;29;666;-67
2022/10/01 00:47:10;;;;;;;;;;;;;;;16.04;68.65;99711.69;1020363;29;702;-67
2022/10/01 00:48:00;;;;;;;;;;;;;;;16.05;68.45;99708.84;1020975;29;652;-68
2022/10/01 00:48:51;;;;;;;;;;;;;;;16.07;68.92;99714.06;1020938;29;611;-68
2022/10/01 00:49:41;;;;;;;;;;;;;;;16.03;68.86;99718.91;1024163;29;701;-68
2022/10/01 00:50:32;;;;;;;;;;;;;;;16.07;69.03;99714.91;1024582;29;681;-68
2022/10/01 00:51:22;;;;;;;;;;;;;;;16.15;68.50;99723.00;1021098;29;714;-68
2022/10/01 00:52:13;;;;;;;;;;;;;;;16.15;68.42;99720.28;1020768;29;638;-69
2022/10/01 00:53:03;;;;;;;;;;;;;;;16.08;68.46;99715.75;1020997;29;658;-68
2022/10/01 00:53:54;;;;;;;;;;;;;;;16.11;68.79;99710.91;1020718;29;1531;-68
2022/10/01 00:54:44;;;;;;;;;;;;;;;16.15;68.40;99717.63;1021015;29;694;-68
2022/10/01 00:55:35;;;;;;;;;;;;;;;16.13;68.76;99716.09;1021001;29;714;-68
2022/10/01 00:56:25;;;;;;;;;;;;;;;16.13;68.52;99711.56;1020969;29;808;-68
2022/10/01 00:57:16;;;;;;;;;;;;;;;16.17;68.87;99720.13;1020878;29;812;-68
2022/10/01 00:58:06;;;;;;;;;;;;;;;16.09;68.78;99720.13;1020836;29;674;-68
2022/10/01 00:58:57;;;;;;;;;;;;;;;16.15;69.00;99722.16;1020992;29;662;-68
2022/10/01 00:59:47;;;;;;;;;;;;;;;16.06;68.86;99726.66;1021049;29;726;-69
2022/10/01 01:00:38;;;;;;;;;;;;;;;16.13;68.98;99729.53;1020205;29;690;-68
2022/10/01 01:01:28;;;;;;;;;;;;;;;16.05;68.71;99733.03;1020950;29;682;-70
2022/10/01 01:02:18;;;;;;;;;;;;;;;15.91;68.92;99736.34;1020816;29;713;-69
2022/10/01 01:03:09;;;;;;;;;;;;;;;15.96;68.99;99724.09;1020868;29;705;-70
2022/10/01 01:03:59;;;;;;;;;;;;;;;15.95;69.27;99716.19;1020942;29;646;-69
2022/10/01 01:04:50;;;;;;;;;;;;;;;15.97;68.49;99712.34;1020862;29;678;-69
2022/10/01 01:05:40;;;;;;;;;;;;;;;15.98;69.15;99699.75;1020907;29;686;-69
2022/10/01 01:06:31;;;;;;;;;;;;;;;16.09;69.00;99669.06;1020828;29;666;-69
2022/10/01 01:07:21;;;;;;;;;;;;;;;16.11;68.97;99659.84;1020900;29;666;-69
2022/10/01 01:08:11;;;;;;;;;;;;;;;16.08;68.91;99665.53;1020772;29;640;-69
2022/10/01 01:09:02;;;;;;;;;;;;;;;16.15;68.92;99674.59;1020305;29;559;-70
2022/10/01 01:09:52;;;;;;;;;;;;;;;16.05;69.09;99673.06;1020387;29;647;-69
2022/10/01 01:10:43;;;;;;;;;;;;;;;16.09;68.99;99672.59;1020725;29;646;-69
2022/10/01 01:11:33;;;;;;;;;;;;;;;16.11;69.51;99678.66;1020334;29;654;-69
2022/10/01 01:12:24;;;;;;;;;;;;;;;16.17;68.44;99691.41;1020772;29;701;-69
2022/10/01 01:13:14;;;;;;;;;;;;;;;16.20;68.65;99701.84;1021369;29;664;-69
2022/10/01 01:14:04;;;;;;;;;;;;;;;16.13;68.87;99711.56;1021104;29;644;-69
2022/10/01 01:14:56;;;;;;;;;;;;;;;16.15;69.12;99722.16;1020806;29;699;-69
2022/10/01 01:15:47;;;;;;;;;;;;;;;16.14;69.43;99715.09;1019419;29;1134;-69
2022/10/01 01:16:37;;;;;;;;;;;;;;;16.11;68.84;99707.38;1020844;29;647;-69
2022/10/01 01:17:28;;;;;;;;;;;;;;;15.94;68.66;99699.22;1020617;29;1437;-69
2022/10/01 01:18:18;;;;;;;;;;;;;;;16.04;69.39;99704.47;1020333;29;714;-69
2022/10/01 01:19:09;;;;;;;;;;;;;;;15.92;69.18;99700.41;1020217;29;741;-70
2022/10/01 01:19:59;;;;;;;;;;;;;;;16.03;69.37;99692.06;1020987;29;643;-70
2022/10/01 01:20:50;;;;;;;;;;;;;;;16.08;69.64;99694.25;1020844;29;666;-70
2022/10/01 01:21:41;;;;;;;;;;;;;;;16.05;68.91;99695.41;1020074;29;631;-70
2022/10/01 01:22:31;;;;;;;;;;;;;;;16.13;68.59;99689.22;1020811;29;686;-70
2022/10/01 01:23:22;;;;;;;;;;;;;;;16.10;68.97;99687.72;1020719;29;693;-70
2022/10/01 01:24:12;;;;;;;;;;;;;;;15.88;68.98;99693.66;1020366;29;676;-70
2022/10/01 01:25:03;;;;;;;;;;;;;;;15.89;69.19;99684.59;1020762;29;801;-69
2022/10/01 01:25:54;;;;;;;;;;;;;;;15.95;69.67;99686.63;1020766;29;650;-70
2022/10/01 01:26:44;;;;;;;;;;;;;;;15.96;69.01;99682.94;1020773;29;1259;-69
2022/10/01 01:27:36;;;;;;;;;;;;;;;15.98;69.57;99672.88;1021181;29;661;-69
2022/10/01 01:28:30;;;;;;;;;;;;;;;16.07;69.20;99679.13;1020694;29;744;-69
2022/10/01 01:29:20;;;;;;;;;;;;;;;16.09;68.53;99685.19;1021363;29;689;-68
2022/10/01 01:30:11;;;;;;;;;;;;;;;16.10;68.90;99674.28;1021258;29;685;-68
2022/10/01 01:31:01;;;;;;;;;;;;;;;16.11;69.09;99667.91;1019877;29;703;-68
2022/10/01 01:31:52;;;;;;;;;;;;;;;16.16;68.79;99670.06;1021336;29;650;-68
2022/10/01 01:32:45;;;;;;;;;;;;;;;16.19;68.54;99667.91;1021357;29;1076;-68
2022/10/01 01:33:36;;;;;;;;;;;;;;;16.19;68.78;99672.44;1021056;29;1533;-68
2022/10/01 01:34:26;;;;;;;;;;;;;;;16.19;68.65;99669.75;1020894;29;662;-68
2022/10/01 01:35:17;;;;;;;;;;;;;;;16.15;68.92;99673.75;1021286;29;736;-68
2022/10/01 01:36:08;;;;;;;;;;;;;;;16.08;68.35;99653.94;1020017;29;1957;-68
2022/10/01 01:36:58;;;;;;;;;;;;;;;16.13;69.16;99659.66;1020657;29;1275;-68
2022/10/01 01:37:49;;;;;;;;;;;;;;;16.17;68.90;99664.53;1020702;29;705;-68
2022/10/01 01:38:40;;;;;;;;;;;;;;;16.05;69.09;99655.09;1019751;29;642;-69
2022/10/01 01:39:30;;;;;;;;;;;;;;;16.09;68.98;99648.41;1020752;29;638;-69
2022/10/01 01:40:21;;;;;;;;;;;;;;;16.09;68.99;99647.56;1020700;29;638;-68
2022/10/01 01:41:12;;;;;;;;;;;;;;;15.98;69.03;99654.06;1020760;29;642;-69
2022/10/01 01:42:02;;;;;;;;;;;;;;;16.04;69.24;99649.88;1020716;29;676;-68
2022/10/01 01:42:53;;;;;;;;;;;;;;;16.08;68.69;99652.09;1020682;29;635;-68
2022/10/01 01:43:43;;;;;;;;;;;;;;;16.14;69.18;99640.66;1020161;29;603;-68
2022/10/01 01:44:33;;;;;;;;;;;;;;;16.19;68.86;99642.88;1020377;29;1267;-68
2022/10/01 01:45:24;;;;;;;;;;;;;;;16.18;68.73;99639.34;1020657;29;634;-68
2022/10/01 01:46:16;;;;;;;;;;;;;;;16.19;68.78;99649.09;1020723;29;655;-69
2022/10/01 01:47:07;;;;;;;;;;;;;;;16.13;68.30;99641.66;1020770;29;646;-69
2022/10/01 01:47:57;;;;;;;;;;;;;;;15.99;68.77;99636.94;1020625;29;701;-69
2022/10/01 01:48:48;;;;;;;;;;;;;;;15.94;69.55;99634.72;1020307;29;647;-69
2022/10/01 01:49:38;;;;;;;;;;;;;;;15.83;69.28;99636.91;1020741;29;710;-69
2022/10/01 01:50:29;;;;;;;;;;;;;;;15.74;69.23;99637.88;1020623;29;631;-69
2022/10/01 01:51:19;;;;;;;;;;;;;;;15.63;69.71;99644.38;1020714;29;671;-69
2022/10/01 01:52:14;;;;;;;;;;;;;;;15.78;69.93;99636.53;1020048;29;698;-69
2022/10/01 01:53:05;;;;;;;;;;;;;;;15.80;69.79;99642.59;1020191;29;721;-69
2022/10/01 01:53:56;;;;;;;;;;;;;;;15.89;69.39;99639.78;1020523;29;622;-68
2022/10/01 01:54:46;;;;;;;;;;;;;;;15.87;69.17;99639.09;1020676;29;682;-69
2022/10/01 01:55:36;;;;;;;;;;;;;;;15.91;69.52;99634.25;1020571;29;608;-69
2022/10/01 01:56:27;;;;;;;;;;;;;;;16.02;68.91;99641.16;1020586;29;646;-68
2022/10/01 01:57:17;;;;;;;;;;;;;;;15.75;69.31;99639.56;1020246;29;670;-69
2022/10/01 01:58:08;;;;;;;;;;;;;;;15.70;70.17;99641.88;1020650;29;705;-69
2022/10/01 01:58:59;;;;;;;;;;;;;;;15.82;69.94;99632.53;1020669;29;662;-69
2022/10/01 01:59:49;;;;;;;;;;;;;;;15.65;69.50;99630.78;1020637;29;841;-69
2022/10/01 02:00:40;;;;;;;;;;;;;;;15.62;69.55;99619.34;1018661;29;1202;-69
2022/10/01 02:01:30;;;;;;;;;;;;;;;15.80;69.89;99629.16;1021248;29;674;-69
2022/10/01 02:02:22;;;;;;;;;;;;;;;15.88;69.75;99626.50;1021020;29;1262;-69
2022/10/01 02:03:12;;;;;;;;;;;;;;;15.94;69.00;99628.56;1021258;29;670;-68
2022/10/01 02:04:03;;;;;;;;;;;;;;;15.88;69.02;99619.28;1019495;29;691;-68
2022/10/01 02:04:53;;;;;;;;;;;;;;;15.96;69.09;99621.13;1021224;29;626;-69
2022/10/01 02:05:44;;;;;;;;;;;;;;;15.94;69.75;99625.88;1021145;29;643;-68
2022/10/01 02:06:34;;;;;;;;;;;;;;;15.98;69.46;99617.28;1019642;29;702;-68
2022/10/01 02:07:25;;;;;;;;;;;;;;;15.82;69.00;99624.47;1020787;29;691;-69
2022/10/01 02:08:15;;;;;;;;;;;;;;;15.88;69.40;99621.13;1021113;29;697;-69
2022/10/01 02:09:07;;;;;;;;;;;;;;;15.67;69.36;99612.66;1021191;29;690;-69
2022/10/01 02:09:57;;;;;;;;;;;;;;;15.67;70.12;99623.41;1019753;29;925;-69
2022/10/01 02:10:48;;;;;;;;;;;;;;;15.84;69.65;99617.09;1021236;29;662;-69
2022/10/01 02:11:38;;;;;;;;;;;;;;;15.71;69.88;99622.09;1019662;29;756;-69
2022/10/01 02:12:29;;;;;;;;;;;;;;;15.78;69.67;99623.09;1019568;29;682;-69
2022/10/01 02:13:23;;;;;;;;;;;;;;;15.89;69.44;99614.75;1019638;29;666;-69
2022/10/01 02:14:13;;;;;;;;;;;;;;;15.89;68.87;99612.06;1021115;29;666;-68
2022/10/01 02:15:03;;;;;;;;;;;;;;;15.91;69.07;99618.13;1021163;29;654;-68
2022/10/01 02:15:54;;;;;;;;;;;;;;;15.96;69.24;99615.75;1021154;29;1965;-68
2022/10/01 02:16:44;;;;;;;;;;;;;;;16.00;69.17;99608.22;1021238;29;858;-68
2022/10/01 02:17:35;;;;;;;;;;;;;;;16.01;68.79;99613.44;1021040;29;678;-68
2022/10/01 02:18:28;;;;;;;;;;;;;;;15.95;69.27;99612.22;1021165;29;725;-68
2022/10/01 02:19:18;;;;;;;;;;;;;;;15.87;69.19;99616.75;1021147;29;650;-69
2022/10/01 02:20:09;;;;;;;;;;;;;;;15.72;69.96;99621.09;1021114;29;630;-69
2022/10/01 02:21:00;;;;;;;;;;;;;;;15.71;69.78;99619.41;1021134;29;697;-69
2022/10/01 02:21:50;;;;;;;;;;;;;;;15.76;69.90;99619.75;1020738;29;654;-68
2022/10/01 02:22:41;;;;;;;;;;;;;;;15.83;69.27;99613.56;1021037;29;622;-69
2022/10/01 02:23:31;;;;;;;;;;;;;;;15.66;69.47;99616.34;1020617;29;736;-69
2022/10/01 02:24:22;;;;;;;;;;;;;;;15.76;69.86;99617.06;1020518;29;670;-68
2022/10/01 02:25:13;;;;;;;;;;;;;;;15.56;69.85;99614.66;1019381;29;639;-68
2022/10/01 02:26:03;;;;;;;;;;;;;;;15.73;70.20;99609.34;1020468;29;627;-68
2022/10/01 02:26:54;;;;;;;;;;;;;;;15.84;69.66;99607.19;1020547;29;653;-68
2022/10/01 02:27:44;;;;;;;;;;;;;;;15.85;69.42;99618.78;1021179;29;630;-69
2022/10/01 02:28:34;;;;;;;;;;;;;;;15.80;69.40;99607.66;1021181;29;642;-69
2022/10/01 02:29:25;;;;;;;;;;;;;;;15.92;69.49;99609.06;1021154;29;670;-69
2022/10/01 02:30:15;;;;;;;;;;;;;;;15.78;69.10;99615.88;1020980;29;1373;-69
2022/10/01 02:31:06;;;;;;;;;;;;;;;15.63;70.05;99607.63;1020564;29;659;-69
2022/10/01 02:31:56;;;;;;;;;;;;;;;15.70;69.94;99617.72;1020465;29;717;-70
2022/10/01 02:32:46;;;;;;;;;;;;;;;15.56;70.12;99603.91;1020155;29;635;-69
2022/10/01 02:33:37;;;;;;;;;;;;;;;15.63;70.09;99610.28;1020644;29;623;-69
2022/10/01 02:34:27;;;;;;;;;;;;;;;15.70;70.07;99605.13;1020122;29;639;-69
2022/10/01 02:35:18;;;;;;;;;;;;;;;15.82;69.26;99611.03;1020598;29;607;-69
2022/10/01 02:36:08;;;;;;;;;;;;;;;15.74;69.32;99603.81;1020577;29;1890;-69
2022/10/01 02:36:59;;;;;;;;;;;;;;;15.68;70.03;99600.91;1020472;29;1332;-70
2022/10/01 02:37:50;;;;;;;;;;;;;;;15.65;70.23;99601.25;1020596;29;701;-70
2022/10/01 02:38:40;;;;;;;;;;;;;;;15.77;69.43;99598.09;1020759;29;708;-70
2022/10/01 02:39:31;;;;;;;;;;;;;;;15.55;69.99;99610.28;1020490;29;706;-69
2022/10/01 02:40:21;;;;;;;;;;;;;;;15.59;70.11;99603.56;1020535;29;717;-69
2022/10/01 02:41:11;;;;;;;;;;;;;;;15.74;69.91;99601.13;1020551;29;687;-69
2022/10/01 02:42:02;;;;;;;;;;;;;;;15.69;69.95;99600.75;1019970;29;678;-69
2022/10/01 02:42:52;;;;;;;;;;;;;;;15.77;70.11;99608.81;1020537;29;1172;-69
2022/10/01 02:43:43;;;;;;;;;;;;;;;15.65;69.79;99602.09;1020435;29;623;-70
2022/10/01 02:44:36;;;;;;;;;;;;;;;15.57;70.45;99605.59;1019877;29;1242;-70
2022/10/01 02:45:30;;;;;;;;;;;;;;;15.48;70.23;99606.50;1020478;29;690;-70
2022/10/01 02:46:21;;;;;;;;;;;;;;;15.49;70.04;99607.34;1020430;29;678;-70
2022/10/01 02:47:11;;;;;;;;;;;;;;;15.35;70.31;99603.44;1020540;29;620;-70
2022/10/01 02:48:02;;;;;;;;;;;;;;;15.53;70.59;99593.44;1020499;29;612;-69
2022/10/01 02:48:52;;;;;;;;;;;;;;;15.63;69.74;99596.03;1020576;29;674;-69
2022/10/01 02:49:43;;;;;;;;;;;;;;;15.39;70.11;99601.28;1020381;29;725;-69
2022/10/01 02:50:33;;;;;;;;;;;;;;;15.24;70.99;99598.34;1019933;29;646;-69
2022/10/01 02:51:24;;;;;;;;;;;;;;;15.52;70.71;99596.31;1020605;29;682;-69
2022/10/01 02:52:15;;;;;;;;;;;;;;;15.68;69.90;99596.38;1019843;29;656;-69
2022/10/01 02:53:05;;;;;;;;;;;;;;;15.63;69.73;99582.59;1019859;29;667;-69
2022/10/01 02:53:56;;;;;;;;;;;;;;;15.56;70.24;99590.47;1020581;29;560;-69
2022/10/01 02:54:46;;;;;;;;;;;;;;;15.61;70.13;99590.81;1020411;29;682;-69
2022/10/01 02:55:36;;;;;;;;;;;;;;;15.70;70.15;99593.53;1020527;29;600;-69
2022/10/01 02:57:36;;;;;;;;;;;;;;;15.73;69.60;99598.59;1021061;29;731;-69
2022/10/01 02:58:26;;;;;;;;;;;;;;;15.73;69.72;99591.38;1019972;29;727;-69
2022/10/01 02:59:17;;;;;;;;;;;;;;;15.57;70.21;99589.47;1019834;29;691;-69
2022/10/01 03:00:07;;;;;;;;;;;;;;;15.71;70.15;99592.53;1020542;29;1354;-69
2022/10/01 03:00:58;;;;;;;;;;;;;;;15.62;69.68;99589.81;1020474;29;690;-69
2022/10/01 03:01:48;;;;;;;;;;;;;;;15.50;70.34;99604.50;1020505;29;627;-69
2022/10/01 03:02:39;;;;;;;;;;;;;;;15.32;70.54;99587.66;1020574;29;666;-69
2022/10/01 03:03:30;;;;;;;;;;;;;;;15.23;71.12;99589.44;1020510;29;693;-70
2022/10/01 03:04:20;;;;;;;;;;;;;;;15.42;70.43;99582.16;1019948;29;710;-69
2022/10/01 03:05:11;;;;;;;;;;;;;;;15.50;70.44;99580.34;1019752;29;627;-69
2022/10/01 03:06:01;;;;;;;;;;;;;;;15.48;70.29;99581.50;1020573;29;690;-69
2022/10/01 03:06:52;;;;;;;;;;;;;;;15.49;70.32;99581.34;1020417;29;694;-69
2022/10/01 03:07:42;;;;;;;;;;;;;;;15.35;70.52;99578.44;1019884;29;622;-69
2022/10/01 03:08:33;;;;;;;;;;;;;;;15.43;70.82;99581.16;1020477;29;1309;-70
2022/10/01 03:09:23;;;;;;;;;;;;;;;15.56;70.50;99584.28;1020466;29;643;-70
2022/10/01 03:10:14;;;;;;;;;;;;;;;15.40;70.22;99574.28;1020462;29;689;-69
2022/10/01 03:11:07;;;;;;;;;;;;;;;15.33;70.97;99581.28;1020426;29;631;-69
2022/10/01 03:11:58;;;;;;;;;;;;;;;15.43;70.51;99573.94;1020569;29;660;-69
2022/10/01 03:12:49;;;;;;;;;;;;;;;15.40;70.82;99571.59;1020501;29;730;-68
2022/10/01 03:13:41;;;;;;;;;;;;;;;15.61;70.35;99572.00;1020436;29;641;-68
2022/10/01 03:14:31;;;;;;;;;;;;;;;15.75;69.80;99570.56;1020504;29;654;-69
2022/10/01 03:15:22;;;;;;;;;;;;;;;15.76;69.43;99568.72;1020624;29;690;-69
2022/10/01 03:16:12;;;;;;;;;;;;;;;15.78;69.27;99574.75;1020416;29;1895;-69
2022/10/01 03:17:03;;;;;;;;;;;;;;;15.67;70.04;99564.31;1019853;29;689;-69
2022/10/01 03:17:53;;;;;;;;;;;;;;;15.72;70.18;99568.22;1019918;29;643;-69
2022/10/01 03:18:44;;;;;;;;;;;;;;;15.58;70.04;99563.47;1020318;29;674;-69
2022/10/01 03:19:34;;;;;;;;;;;;;;;15.61;70.07;99557.75;1020485;29;651;-69
2022/10/01 03:20:25;;;;;;;;;;;;;;;15.66;70.10;99554.59;1020570;29;635;-69
2022/10/01 03:21:16;;;;;;;;;;;;;;;15.59;70.43;99563.28;1021088;29;728;-69
2022/10/01 03:22:06;;;;;;;;;;;;;;;15.61;70.24;99557.75;1020390;29;694;-69
2022/10/01 03:22:57;;;;;;;;;;;;;;;15.52;70.25;99564.06;1020011;29;659;-69
2022/10/01 03:23:47;;;;;;;;;;;;;;;15.36;70.83;99564.84;1020481;29;622;-69
2022/10/01 03:24:38;;;;;;;;;;;;;;;15.52;70.72;99564.06;1020035;29;642;-69
2022/10/01 03:25:28;;;;;;;;;;;;;;;15.41;70.23;99557.13;1020422;29;682;-69
2022/10/01 03:26:18;;;;;;;;;;;;;;;15.56;70.34;99563.63;1019942;29;634;-68
2022/10/01 03:27:09;;;;;;;;;;;;;;;15.50;70.83;99556.19;1019876;29;633;-68
2022/10/01 03:28:00;;;;;;;;;;;;;;;15.60;70.43;99553.38;1020451;29;693;-68
2022/10/01 03:28:50;;;;;;;;;;;;;;;15.59;70.14;99551.69;1020453;29;618;-68
2022/10/01 03:29:41;;;;;;;;;;;;;;;15.66;70.20;99549.22;1020531;29;642;-69
2022/10/01 03:30:32;;;;;;;;;;;;;;;15.65;70.44;99552.91;1016503;29;631;-69
2022/10/01 03:31:22;;;;;;;;;;;;;;;15.55;70.45;99559.25;1015461;29;619;-69
2022/10/01 03:32:12;;;;;;;;;;;;;;;15.65;70.11;99564.47;1020786;29;1440;-69
2022/10/01 03:33:03;;;;;;;;;;;;;;;15.65;70.35;99569.00;1022926;29;649;-69
2022/10/01 03:33:53;;;;;;;;;;;;;;;15.67;70.43;99548.22;1022883;29;1344;-69
2022/10/01 03:34:44;;;;;;;;;;;;;;;15.61;70.30;99547.84;1020976;29;638;-69
2022/10/01 03:35:34;;;;;;;;;;;;;;;15.67;70.00;99559.78;1021714;29;637;-69
2022/10/01 03:36:24;;;;;;;;;;;;;;;15.67;70.25;99554.41;1020066;29;1903;-69
2022/10/01 03:37:15;;;;;;;;;;;;;;;15.71;69.99;99563.00;1021541;29;1178;-69
2022/10/01 03:38:07;;;;;;;;;;;;;;;15.62;70.38;99562.97;1021805;29;732;-69
2022/10/01 03:38:57;;;;;;;;;;;;;;;15.76;70.18;99550.75;1021722;29;698;-69
2022/10/01 03:39:47;;;;;;;;;;;;;;;15.74;69.88;99549.25;1021766;29;721;-69
2022/10/01 03:40:38;;;;;;;;;;;;;;;15.65;70.49;99552.91;1021705;29;717;-69
2022/10/01 03:41:28;;;;;;;;;;;;;;;15.50;70.64;99566.09;1021754;29;669;-70
2022/10/01 03:42:19;;;;;;;;;;;;;;;15.38;70.88;99567.38;1021638;29;724;-69
2022/10/01 03:43:09;;;;;;;;;;;;;;;15.57;70.81;99565.31;1020171;29;674;-69
2022/10/01 03:44:00;;;;;;;;;;;;;;;15.71;70.13;99560.31;1021863;29;650;-69
2022/10/01 03:44:50;;;;;;;;;;;;;;;15.58;70.29;99564.31;1021653;29;654;-69
2022/10/01 03:45:41;;;;;;;;;;;;;;;15.65;70.47;99569.00;1021199;29;667;-69
2022/10/01 03:46:31;;;;;;;;;;;;;;;15.62;70.44;99571.00;1021132;29;643;-69
2022/10/01 03:47:23;;;;;;;;;;;;;;;15.52;70.38;99553.34;1021251;29;631;-69
2022/10/01 03:48:13;;;;;;;;;;;;;;;15.51;70.83;99562.41;1021128;29;706;-70
2022/10/01 03:49:04;;;;;;;;;;;;;;;15.59;70.60;99559.75;1020599;29;635;-70
2022/10/01 03:49:54;;;;;;;;;;;;;;;15.59;70.54;99560.59;1021166;29;685;-69
2022/10/01 03:50:46;;;;;;;;;;;;;;;15.73;70.18;99563.69;1021268;29;722;-69
2022/10/01 03:51:36;;;;;;;;;;;;;;;15.57;70.51;99573.38;1021120;29;794;-69
2022/10/01 03:52:27;;;;;;;;;;;;;;;15.43;71.10;99576.63;1021207;29;643;-69
2022/10/01 03:53:17;;;;;;;;;;;;;;;15.36;71.33;99572.91;1020505;29;631;-69
2022/10/01 03:54:07;;;;;;;;;;;;;;;15.47;70.72;99567.25;1021121;29;729;-69
2022/10/01 03:54:59;;;;;;;;;;;;;;;15.35;71.38;99573.91;1021075;29;682;-69
2022/10/01 03:55:50;;;;;;;;;;;;;;;15.28;71.09;99571.03;1021189;29;631;-69
2022/10/01 03:56:41;;;;;;;;;;;;;;;15.33;71.08;99569.69;1021106;29;627;-69
2022/10/01 03:57:31;;;;;;;;;;;;;;;15.29;71.50;99585.28;1021092;29;651;-69
2022/10/01 03:58:22;;;;;;;;;;;;;;;15.48;71.13;99574.28;1021056;29;627;-69
2022/10/01 03:59:13;;;;;;;;;;;;;;;15.63;70.59;99571.84;1021083;29;970;-69
2022/10/01 04:00:03;;;;;;;;;;;;;;;15.36;71.29;99575.59;1020485;29;1274;-69
2022/10/01 04:00:54;;;;;;;;;;;;;;;15.30;71.36;99589.66;1021041;29;667;-69
2022/10/01 04:01:45;;;;;;;;;;;;;;;15.28;71.15;99584.44;1021009;29;701;-69
2022/10/01 04:02:35;;;;;;;;;;;;;;;15.15;71.71;99576.00;1021014;29;667;-70
2022/10/01 04:03:26;;;;;;;;;;;;;;;15.24;71.34;99592.97;1020717;29;744;-69
2022/10/01 04:04:16;;;;;;;;;;;;;;;15.15;71.60;99589.41;1021122;29;643;-69
2022/10/01 04:05:07;;;;;;;;;;;;;;;15.25;71.46;99589.28;1021188;29;709;-69
2022/10/01 04:05:58;;;;;;;;;;;;;;;15.37;71.12;99593.38;1021096;29;698;-69
2022/10/01 04:06:48;;;;;;;;;;;;;;;15.40;71.10;99590.38;1021039;29;650;-69
2022/10/01 04:07:39;;;;;;;;;;;;;;;15.51;71.13;99594.63;1024327;29;659;-69
2022/10/01 04:08:29;;;;;;;;;;;;;;;15.54;70.88;99584.41;1024776;29;628;-68
2022/10/01 04:09:19;;;;;;;;;;;;;;;15.36;70.84;99589.03;1021250;29;857;-69
2022/10/01 04:10:10;;;;;;;;;;;;;;;15.39;70.69;99599.44;1021564;29;796;-69
2022/10/01 04:11:01;;;;;;;;;;;;;;;15.12;71.85;99599.63;1020639;29;812;-69
2022/10/01 04:11:51;;;;;;;;;;;;;;;15.14;71.76;99597.63;1020950;29;650;-69
2022/10/01 04:12:43;;;;;;;;;;;;;;;15.08;72.02;99598.25;1021156;29;638;-69
2022/10/01 04:13:33;;;;;;;;;;;;;;;15.06;72.52;99598.41;1021027;29;658;-68
2022/10/01 04:14:24;;;;;;;;;;;;;;;15.31;71.65;99603.91;1021049;29;663;-68
2022/10/01 04:15:15;;;;;;;;;;;;;;;15.19;71.89;99617.63;1020983;29;643;-68
2022/10/01 04:16:06;;;;;;;;;;;;;;;15.23;71.97;99602.00;1021014;29;1898;-69
2022/10/01 04:16:57;;;;;;;;;;;;;;;15.16;71.60;99601.00;1021068;29;631;-69
2022/10/01 04:17:48;;;;;;;;;;;;;;;15.13;72.13;99612.03;1020625;29;638;-69
2022/10/01 04:18:38;;;;;;;;;;;;;;;15.04;72.33;99610.31;1020555;29;615;-69
2022/10/01 04:19:29;;;;;;;;;;;;;;;15.31;71.63;99614.66;1021627;29;667;-69
2022/10/01 04:20:19;;;;;;;;;;;;;;;15.21;71.83;99615.63;1021016;29;647;-68
2022/10/01 04:21:11;;;;;;;;;;;;;;;15.22;71.99;99605.72;1020568;29;647;-68
2022/10/01 04:22:02;;;;;;;;;;;;;;;15.42;71.46;99611.69;1021106;29;654;-68
2022/10/01 04:22:52;;;;;;;;;;;;;;;15.14;72.05;99608.34;1021122;29;663;-68
2022/10/01 04:23:42;;;;;;;;;;;;;;;15.24;71.85;99603.69;1021048;29;669;-68
2022/10/01 04:24:33;;;;;;;;;;;;;;;15.36;71.44;99597.06;1020942;29;666;-68
2022/10/01 04:25:23;;;;;;;;;;;;;;;15.20;71.77;99613.09;1021032;29;650;-68
2022/10/01 04:26:14;;;;;;;;;;;;;;;15.35;71.53;99614.19;1021070;29;651;-68
2022/10/01 04:27:04;;;;;;;;;;;;;;;15.32;71.71;99617.19;1021031;29;603;-68
2022/10/01 04:27:55;;;;;;;;;;;;;;;15.36;71.46;99618.56;1021072;29;650;-68
2022/10/01 04:28:45;;;;;;;;;;;;;;;15.25;71.57;99616.97;1020917;29;702;-68
2022/10/01 04:29:36;;;;;;;;;;;;;;;15.10;71.97;99615.88;1020657;29;1301;-68
2022/10/01 04:30:26;;;;;;;;;;;;;;;15.24;72.02;99614.44;1020958;29;1451;-69
2022/10/01 04:31:26;;;;;;;;;;;;;;;15.29;71.51;99622.84;1020901;29;1494;-68
2022/10/01 04:32:20;;;;;;;;;;;;;;;15.45;71.11;99622.09;1020766;29;1470;-69